createdAt,value
2019-01-18T00:00:36.073Z,1.552124
2019-01-18T00:01:45.592Z,1.562195
2019-01-18T00:02:55.111Z,1.562195
2019-01-18T00:04:04.718Z,1.582336
2019-01-18T00:05:14.181Z,1.562195
2019-01-18T00:06:23.708Z,1.562195
2019-01-18T00:07:33.207Z,1.582336
2019-01-18T00:08:42.763Z,1.602478
2019-01-18T00:09:52.295Z,1.602478
2019-01-18T00:11:01.823Z,1.592407
2019-01-18T00:12:11.335Z,1.592407
2019-01-18T00:13:20.853Z,1.592407
2019-01-18T00:14:30.383Z,1.592407
2019-01-18T00:15:39.898Z,1.592407
2019-01-18T00:16:49.456Z,1.602478
2019-01-18T00:17:58.991Z,1.592407
2019-01-18T00:19:08.507Z,1.592407
2019-01-18T00:20:18.047Z,1.592407
2019-01-18T00:21:27.585Z,1.602478
2019-01-18T00:22:37.091Z,1.602478
2019-01-18T00:23:46.612Z,1.62262
2019-01-18T00:24:56.145Z,1.62262
2019-01-18T00:26:05.648Z,1.62262
2019-01-18T00:27:15.156Z,1.63269
2019-01-18T00:28:23.704Z,1.62262
2019-01-18T00:29:33.236Z,1.662903
2019-01-18T00:30:42.809Z,1.662903
2019-01-18T00:31:52.305Z,1.662903
2019-01-18T00:33:01.829Z,1.672974
2019-01-18T00:34:11.365Z,1.672974
2019-01-18T00:35:20.911Z,1.683044
2019-01-18T00:36:30.431Z,1.703186
2019-01-18T00:37:39.958Z,1.713257
2019-01-18T00:38:49.499Z,1.713257
2019-01-18T00:39:59.013Z,1.683044
2019-01-18T00:41:08.522Z,1.672974
2019-01-18T00:42:18.072Z,1.672974
2019-01-18T00:43:27.578Z,1.683044
2019-01-18T00:44:37.078Z,1.733398
2019-01-18T00:45:46.610Z,1.713257
2019-01-18T00:46:56.136Z,1.733398
2019-01-18T00:48:05.680Z,1.733398
2019-01-18T00:49:15.219Z,1.733398
2019-01-18T00:50:24.741Z,1.783752
2019-01-18T00:51:34.264Z,1.844177
2019-01-18T00:52:43.765Z,1.854248
2019-01-18T00:53:53.278Z,1.854248
2019-01-18T00:55:02.808Z,1.854248
2019-01-18T00:56:12.347Z,1.854248
2019-01-18T00:57:21.856Z,1.88446
2019-01-18T00:58:31.381Z,1.87439
2019-01-18T00:59:40.898Z,1.88446
2019-01-18T01:00:50.412Z,1.894531
2019-01-18T01:01:59.917Z,1.87439
2019-01-18T01:03:09.485Z,1.813965
2019-01-18T01:04:19.028Z,1.773682
2019-01-18T01:05:28.534Z,1.713257
2019-01-18T01:06:38.114Z,1.672974
2019-01-18T01:07:47.651Z,1.63269
2019-01-18T01:08:57.242Z,1.592407
2019-01-18T01:10:06.736Z,1.552124
2019-01-18T01:11:16.296Z,1.521912
2019-01-18T01:12:25.824Z,1.481628
2019-01-18T01:13:35.372Z,1.260071
2019-01-18T01:14:44.906Z,1.078796
2019-01-18T01:15:54.434Z,0.857239
2019-01-18T01:17:03.984Z,0.686035
2019-01-18T01:18:13.529Z,0.575256
2019-01-18T01:19:23.055Z,0.464478
2019-01-18T01:20:32.584Z,0.36377
2019-01-18T01:21:42.101Z,0.263062
2019-01-18T01:22:51.601Z,0.192566
2019-01-18T01:24:01.134Z,0.112
2019-01-18T01:25:10.654Z,0.051575
2019-01-18T01:26:20.199Z,0.071716
2019-01-18T01:27:29.712Z,0.031433
2019-01-18T01:28:39.254Z,0.031433
2019-01-18T01:29:48.772Z,0.031433
2019-01-18T01:30:59.284Z,0.031433
2019-01-18T01:32:08.810Z,0.001221
2019-01-18T01:33:18.356Z,0.001221
2019-01-18T01:34:27.893Z,0.011292
2019-01-18T01:35:37.437Z,0.041504
2019-01-18T01:36:46.978Z,0.041504
2019-01-18T01:37:56.496Z,0.041504
2019-01-18T01:39:06.048Z,0.051575
2019-01-18T01:40:15.562Z,0.051575
2019-01-18T01:41:25.067Z,0.051575
2019-01-18T01:42:34.579Z,0.071716
2019-01-18T01:43:44.122Z,0.071716
2019-01-18T01:44:53.694Z,0.081787
2019-01-18T01:46:03.227Z,0.101929
2019-01-18T01:47:12.734Z,0.12207
2019-01-18T01:48:22.281Z,0.152283
2019-01-18T01:49:31.825Z,0.152283
2019-01-18T01:50:41.328Z,0.12207
2019-01-18T01:51:50.854Z,0.162354
2019-01-18T01:53:00.364Z,0.162354
2019-01-18T01:54:09.900Z,0.152283
2019-01-18T01:55:19.418Z,0.12207
2019-01-18T01:56:28.923Z,0.112
2019-01-18T01:57:38.446Z,0.12207
2019-01-18T01:58:47.995Z,0.112
2019-01-18T01:59:57.574Z,0.12207
2019-01-18T02:01:07.115Z,0.182495
2019-01-18T02:02:16.644Z,0.162354
2019-01-18T02:03:26.178Z,0.162354
2019-01-18T02:04:35.722Z,0.152283
2019-01-18T02:05:45.228Z,0.12207
2019-01-18T02:06:54.738Z,0.12207
2019-01-18T02:08:04.267Z,0.12207
2019-01-18T02:09:13.802Z,0.12207
2019-01-18T02:10:23.330Z,0.152283
2019-01-18T02:11:32.870Z,0.152283
2019-01-18T02:12:42.369Z,0.112
2019-01-18T02:13:51.908Z,0.112
2019-01-18T02:15:01.422Z,0.12207
2019-01-18T02:16:10.934Z,0.12207
2019-01-18T02:17:20.474Z,0.152283
2019-01-18T02:18:30.001Z,0.152283
2019-01-18T02:19:39.559Z,0.162354
2019-01-18T02:20:49.100Z,0.152283
2019-01-18T02:21:58.625Z,0.152283
2019-01-18T02:23:08.154Z,0.152283
2019-01-18T02:24:17.701Z,0.162354
2019-01-18T02:25:27.222Z,0.162354
2019-01-18T02:26:36.825Z,0.162354
2019-01-18T02:27:46.414Z,0.152283
2019-01-18T02:28:55.965Z,0.162354
2019-01-18T02:30:05.500Z,0.162354
2019-01-18T02:31:15.069Z,0.192566
2019-01-18T02:32:24.586Z,0.182495
2019-01-18T02:33:34.116Z,0.162354
2019-01-18T02:34:43.653Z,0.162354
2019-01-18T02:35:53.190Z,0.162354
2019-01-18T02:37:02.721Z,0.152283
2019-01-18T02:38:12.244Z,0.152283
2019-01-18T02:39:21.787Z,0.112
2019-01-18T02:40:31.301Z,0.112
2019-01-18T02:41:40.845Z,0.112
2019-01-18T02:42:50.544Z,0.101929
2019-01-18T02:44:00.087Z,0.112
2019-01-18T02:45:09.626Z,0.081787
2019-01-18T02:46:19.169Z,0.101929
2019-01-18T02:47:28.729Z,0.081787
2019-01-18T02:48:38.261Z,0.081787
2019-01-18T02:49:47.824Z,0.071716
2019-01-18T02:50:57.360Z,0.071716
2019-01-18T02:52:06.912Z,0.051575
2019-01-18T02:53:16.415Z,0.041504
2019-01-18T02:54:25.917Z,0.041504
2019-01-18T02:55:35.462Z,0.041504
2019-01-18T02:56:45.016Z,0.041504
2019-01-18T02:57:54.532Z,0.011292
2019-01-18T02:59:04.045Z,0.031433
2019-01-18T03:00:13.589Z,0.011292
2019-01-18T03:01:23.128Z,0.001221
2019-01-18T03:02:32.633Z,0.001221
2019-01-18T03:03:42.170Z,-0.028992
2019-01-18T03:04:51.711Z,0.001221
2019-01-18T03:06:01.232Z,0.001221
2019-01-18T03:07:10.747Z,-0.018921
2019-01-18T03:08:20.278Z,0.001221
2019-01-18T03:09:29.800Z,0.001221
2019-01-18T03:10:39.379Z,0.001221
2019-01-18T03:11:48.891Z,-0.018921
2019-01-18T03:12:58.413Z,-0.018921
2019-01-18T03:14:07.928Z,0.001221
2019-01-18T03:15:17.437Z,-0.018921
2019-01-18T03:16:27.967Z,-0.018921
2019-01-18T03:17:37.524Z,-0.018921
2019-01-18T03:18:47.081Z,-0.059204
2019-01-18T03:19:56.622Z,-0.028992
2019-01-18T03:21:06.117Z,-0.018921
2019-01-18T03:22:15.667Z,-0.018921
2019-01-18T03:23:25.180Z,-0.028992
2019-01-18T03:24:34.739Z,-0.028992
2019-01-18T03:25:44.260Z,-0.059204
2019-01-18T03:26:53.777Z,-0.028992
2019-01-18T03:28:03.307Z,-0.059204
2019-01-18T03:29:12.856Z,-0.069275
2019-01-18T03:30:22.376Z,-0.069275
2019-01-18T03:31:31.910Z,-0.079346
2019-01-18T03:32:41.426Z,-0.079346
2019-01-18T03:33:50.938Z,-0.079346
2019-01-18T03:35:00.476Z,-0.079346
2019-01-18T03:36:10.033Z,-0.099487
2019-01-18T03:37:19.570Z,-0.109558
2019-01-18T03:38:29.099Z,-0.099487
2019-01-18T03:39:38.617Z,-0.099487
2019-01-18T03:40:48.141Z,-0.079346
2019-01-18T03:41:57.692Z,-0.099487
2019-01-18T03:43:07.209Z,-0.099487
2019-01-18T03:44:16.705Z,-0.109558
2019-01-18T03:45:26.244Z,-0.079346
2019-01-18T03:46:35.784Z,-0.099487
2019-01-18T03:47:45.307Z,-0.1297
2019-01-18T03:48:54.840Z,-0.1297
2019-01-18T03:50:04.385Z,-0.139771
2019-01-18T03:51:13.958Z,-0.139771
2019-01-18T03:52:23.509Z,-0.139771
2019-01-18T03:53:33.030Z,-0.139771
2019-01-18T03:54:42.604Z,-0.139771
2019-01-18T03:55:52.149Z,-0.180054
2019-01-18T03:57:01.677Z,-0.180054
2019-01-18T03:58:11.198Z,-0.169983
2019-01-18T03:59:20.715Z,-0.169983
2019-01-18T04:00:30.239Z,-0.180054
2019-01-18T04:01:39.790Z,-0.180054
2019-01-18T04:02:49.316Z,-0.210266
2019-01-18T04:03:58.825Z,-0.200195
2019-01-18T04:05:08.335Z,-0.200195
2019-01-18T04:06:17.850Z,-0.200195
2019-01-18T04:07:27.378Z,-0.200195
2019-01-18T04:08:36.917Z,-0.210266
2019-01-18T04:09:46.508Z,-0.210266
2019-01-18T04:10:56.051Z,-0.200195
2019-01-18T04:12:05.554Z,-0.200195
2019-01-18T04:13:15.072Z,-0.200195
2019-01-18T04:14:25.960Z,-0.200195
2019-01-18T04:15:34.120Z,-0.210266
2019-01-18T04:16:43.634Z,-0.200195
2019-01-18T04:17:53.149Z,-0.180054
2019-01-18T04:19:02.663Z,-0.210266
2019-01-18T04:20:12.203Z,-0.230408
2019-01-18T04:21:21.799Z,-0.26062
2019-01-18T04:22:31.310Z,-0.280762
2019-01-18T04:23:40.828Z,-0.310974
2019-01-18T04:24:50.352Z,-0.321045
2019-01-18T04:25:59.896Z,-0.321045
2019-01-18T04:27:09.432Z,-0.290833
2019-01-18T04:28:18.943Z,-0.310974
2019-01-18T04:29:28.489Z,-0.310974
2019-01-18T04:30:38.008Z,-0.321045
2019-01-18T04:31:47.566Z,-0.341187
2019-01-18T04:32:57.089Z,-0.341187
2019-01-18T04:34:07.606Z,-0.321045
2019-01-18T04:35:17.134Z,-0.321045
2019-01-18T04:36:26.688Z,-0.361328
2019-01-18T04:37:36.180Z,-0.38147
2019-01-18T04:38:45.712Z,-0.361328
2019-01-18T04:39:55.250Z,-0.361328
2019-01-18T04:41:04.788Z,-0.351257
2019-01-18T04:42:14.307Z,-0.341187
2019-01-18T04:43:23.863Z,-0.341187
2019-01-18T04:44:33.404Z,-0.351257
2019-01-18T04:45:42.919Z,-0.351257
2019-01-18T04:46:52.488Z,-0.361328
2019-01-18T04:48:02.026Z,-0.351257
2019-01-18T04:49:11.587Z,-0.361328
2019-01-18T04:50:21.086Z,-0.361328
2019-01-18T04:51:30.635Z,-0.38147
2019-01-18T04:52:40.150Z,-0.391541
2019-01-18T04:53:49.974Z,-0.391541
2019-01-18T04:54:59.515Z,-0.391541
2019-01-18T04:56:09.058Z,-0.391541
2019-01-18T04:57:18.608Z,-0.411682
2019-01-18T04:58:28.121Z,-0.391541
2019-01-18T04:59:37.659Z,-0.391541
2019-01-18T05:00:47.201Z,-0.411682
2019-01-18T05:01:56.765Z,-0.411682
2019-01-18T05:03:06.280Z,-0.431824
2019-01-18T05:04:15.851Z,-0.411682
2019-01-18T05:05:25.359Z,-0.431824
2019-01-18T05:06:34.907Z,-0.431824
2019-01-18T05:07:44.434Z,-0.391541
2019-01-18T05:08:54.000Z,-0.431824
2019-01-18T05:10:03.503Z,-0.431824
2019-01-18T05:11:13.034Z,-0.431824
2019-01-18T05:12:22.587Z,-0.431824
2019-01-18T05:13:32.137Z,-0.431824
2019-01-18T05:14:41.671Z,-0.411682
2019-01-18T05:15:51.218Z,-0.431824
2019-01-18T05:17:00.785Z,-0.431824
2019-01-18T05:18:10.312Z,-0.431824
2019-01-18T05:19:19.841Z,-0.431824
2019-01-18T05:20:29.371Z,-0.411682
2019-01-18T05:21:38.923Z,-0.391541
2019-01-18T05:22:48.441Z,-0.411682
2019-01-18T05:23:57.966Z,-0.411682
2019-01-18T05:25:07.482Z,-0.391541
2019-01-18T05:26:16.994Z,-0.391541
2019-01-18T05:27:26.524Z,-0.391541
2019-01-18T05:28:36.068Z,-0.391541
2019-01-18T05:29:45.609Z,-0.391541
2019-01-18T05:30:55.123Z,-0.38147
2019-01-18T05:32:04.689Z,-0.391541
2019-01-18T05:33:14.236Z,-0.38147
2019-01-18T05:34:23.763Z,-0.391541
2019-01-18T05:35:33.300Z,-0.391541
2019-01-18T05:36:42.827Z,-0.391541
2019-01-18T05:37:52.374Z,-0.38147
2019-01-18T05:39:01.966Z,-0.391541
2019-01-18T05:40:11.486Z,-0.411682
2019-01-18T05:41:21.003Z,-0.411682
2019-01-18T05:42:30.542Z,-0.441895
2019-01-18T05:43:40.068Z,-0.441895
2019-01-18T05:44:49.600Z,-0.431824
2019-01-18T05:45:59.156Z,-0.431824
2019-01-18T05:47:08.716Z,-0.431824
2019-01-18T05:48:18.233Z,-0.441895
2019-01-18T05:49:27.763Z,-0.441895
2019-01-18T05:50:37.295Z,-0.441895
2019-01-18T05:51:46.824Z,-0.462036
2019-01-18T05:52:56.368Z,-0.441895
2019-01-18T05:54:05.889Z,-0.462036
2019-01-18T05:55:15.418Z,-0.462036
2019-01-18T05:56:24.954Z,-0.462036
2019-01-18T05:57:34.481Z,-0.441895
2019-01-18T05:58:44.031Z,-0.441895
2019-01-18T05:59:53.568Z,-0.431824
2019-01-18T06:01:03.115Z,-0.462036
2019-01-18T06:02:12.648Z,-0.431824
2019-01-18T06:03:22.184Z,-0.462036
2019-01-18T06:04:31.699Z,-0.441895
2019-01-18T06:05:41.261Z,-0.462036
2019-01-18T06:06:50.769Z,-0.462036
2019-01-18T06:08:00.342Z,-0.462036
2019-01-18T06:09:09.885Z,-0.441895
2019-01-18T06:10:19.394Z,-0.431824
2019-01-18T06:11:28.896Z,-0.411682
2019-01-18T06:12:38.437Z,-0.431824
2019-01-18T06:13:47.971Z,-0.431824
2019-01-18T06:14:57.483Z,-0.411682
2019-01-18T06:16:06.994Z,-0.391541
2019-01-18T06:17:16.542Z,-0.411682
2019-01-18T06:18:26.057Z,-0.431824
2019-01-18T06:19:35.597Z,-0.441895
2019-01-18T06:20:45.129Z,-0.502319
2019-01-18T06:21:54.648Z,-0.492249
2019-01-18T06:23:04.221Z,-0.492249
2019-01-18T06:24:13.767Z,-0.502319
2019-01-18T06:25:23.317Z,-0.502319
2019-01-18T06:26:32.868Z,-0.522461
2019-01-18T06:27:42.362Z,-0.522461
2019-01-18T06:28:51.883Z,-0.522461
2019-01-18T06:30:01.472Z,-0.532532
2019-01-18T06:31:10.988Z,-0.532532
2019-01-18T06:32:20.550Z,-0.522461
2019-01-18T06:33:30.087Z,-0.542603
2019-01-18T06:34:39.614Z,-0.532532
2019-01-18T06:35:49.160Z,-0.522461
2019-01-18T06:36:58.683Z,-0.532532
2019-01-18T06:38:08.260Z,-0.532532
2019-01-18T06:39:17.811Z,-0.532532
2019-01-18T06:40:27.324Z,-0.562744
2019-01-18T06:41:36.845Z,-0.562744
2019-01-18T06:42:46.379Z,-0.562744
2019-01-18T06:43:55.905Z,-0.572815
2019-01-18T06:45:05.468Z,-0.562744
2019-01-18T06:46:15.029Z,-0.562744
2019-01-18T06:47:24.573Z,-0.562744
2019-01-18T06:48:34.113Z,-0.562744
2019-01-18T06:49:43.676Z,-0.572815
2019-01-18T06:50:53.202Z,-0.572815
2019-01-18T06:52:02.752Z,-0.572815
2019-01-18T06:53:12.316Z,-0.572815
2019-01-18T06:54:21.859Z,-0.572815
2019-01-18T06:55:31.412Z,-0.542603
2019-01-18T06:56:40.956Z,-0.532532
2019-01-18T06:57:50.514Z,-0.532532
2019-01-18T06:59:00.049Z,-0.522461
2019-01-18T07:00:09.566Z,-0.492249
2019-01-18T07:01:19.117Z,-0.492249
2019-01-18T07:02:28.648Z,-0.492249
2019-01-18T07:03:38.176Z,-0.492249
2019-01-18T07:04:47.702Z,-0.492249
2019-01-18T07:05:58.224Z,-0.492249
2019-01-18T07:07:07.785Z,-0.462036
2019-01-18T07:08:17.373Z,-0.462036
2019-01-18T07:09:26.929Z,-0.441895
2019-01-18T07:10:36.450Z,-0.462036
2019-01-18T07:11:45.962Z,-0.462036
2019-01-18T07:12:55.508Z,-0.441895
2019-01-18T07:14:05.058Z,-0.462036
2019-01-18T07:15:14.581Z,-0.431824
2019-01-18T07:16:24.125Z,-0.431824
2019-01-18T07:17:33.674Z,-0.411682
2019-01-18T07:18:43.196Z,-0.391541
2019-01-18T07:19:52.732Z,-0.411682
2019-01-18T07:21:02.269Z,-0.391541
2019-01-18T07:22:11.809Z,-0.38147
2019-01-18T07:23:21.356Z,-0.38147
2019-01-18T07:24:30.954Z,-0.351257
2019-01-18T07:25:40.442Z,-0.351257
2019-01-18T07:26:49.984Z,-0.341187
2019-01-18T07:27:59.536Z,-0.321045
2019-01-18T07:29:09.071Z,-0.321045
2019-01-18T07:30:18.607Z,-0.321045
2019-01-18T07:31:28.117Z,-0.321045
2019-01-18T07:32:37.631Z,-0.280762
2019-01-18T07:33:47.210Z,-0.280762
2019-01-18T07:34:56.741Z,-0.280762
2019-01-18T07:36:06.269Z,-0.280762
2019-01-18T07:37:15.827Z,-0.26062
2019-01-18T07:38:25.377Z,-0.26062
2019-01-18T07:39:34.892Z,-0.280762
2019-01-18T07:40:44.409Z,-0.321045
2019-01-18T07:41:53.955Z,-0.321045
2019-01-18T07:43:03.502Z,-0.341187
2019-01-18T07:44:13.031Z,-0.321045
2019-01-18T07:45:22.545Z,-0.321045
2019-01-18T07:46:32.133Z,-0.310974
2019-01-18T07:47:41.662Z,-0.310974
2019-01-18T07:48:51.194Z,-0.310974
2019-01-18T07:50:00.842Z,-0.290833
2019-01-18T07:51:10.372Z,-0.26062
2019-01-18T07:52:19.891Z,-0.26062
2019-01-18T07:53:29.461Z,-0.230408
2019-01-18T07:54:38.999Z,-0.280762
2019-01-18T07:55:48.509Z,-0.361328
2019-01-18T07:56:57.047Z,-0.562744
2019-01-18T07:58:06.591Z,-0.673523
2019-01-18T07:59:16.086Z,-0.744019
2019-01-18T08:00:25.638Z,-0.804443
2019-01-18T08:01:35.181Z,-0.784302
2019-01-18T08:02:44.716Z,-0.713806
2019-01-18T08:03:54.271Z,-0.653381
2019-01-18T08:05:03.787Z,-0.572815
2019-01-18T08:06:13.365Z,-0.532532
2019-01-18T08:07:22.888Z,-0.472107
2019-01-18T08:08:32.439Z,-0.462036
2019-01-18T08:09:42.987Z,-0.411682
2019-01-18T08:10:52.503Z,-0.391541
2019-01-18T08:12:02.013Z,-0.38147
2019-01-18T08:13:11.552Z,-0.38147
2019-01-18T08:14:21.061Z,-0.38147
2019-01-18T08:15:30.589Z,-0.321045
2019-01-18T08:16:40.132Z,-0.280762
2019-01-18T08:17:49.668Z,-0.230408
2019-01-18T08:18:59.229Z,-0.230408
2019-01-18T08:20:08.760Z,-0.200195
2019-01-18T08:21:18.299Z,-0.149841
2019-01-18T08:22:27.863Z,-0.1297
2019-01-18T08:23:37.400Z,-0.099487
2019-01-18T08:24:46.943Z,-0.059204
2019-01-18T08:25:56.445Z,0.011292
2019-01-18T08:27:05.979Z,0.041504
2019-01-18T08:28:15.579Z,0.081787
2019-01-18T08:29:25.110Z,0.162354
2019-01-18T08:30:34.626Z,0.232849
2019-01-18T08:31:44.179Z,0.232849
2019-01-18T08:32:53.710Z,0.252991
2019-01-18T08:34:03.260Z,0.252991
2019-01-18T08:35:12.786Z,0.252991
2019-01-18T08:36:22.297Z,0.293274
2019-01-18T08:37:31.812Z,0.323486
2019-01-18T08:38:41.344Z,0.36377
2019-01-18T08:39:50.860Z,0.37384
2019-01-18T08:41:00.389Z,0.393982
2019-01-18T08:42:09.942Z,0.464478
2019-01-18T08:43:20.233Z,0.434265
2019-01-18T08:44:28.981Z,0.444336
2019-01-18T08:45:38.506Z,0.444336
2019-01-18T08:46:48.016Z,0.49469
2019-01-18T08:47:57.543Z,0.464478
2019-01-18T08:49:07.097Z,0.49469
2019-01-18T08:50:16.615Z,0.545044
2019-01-18T08:51:26.135Z,0.545044
2019-01-18T08:52:35.676Z,0.464478
2019-01-18T08:53:45.243Z,0.444336
2019-01-18T08:54:54.763Z,0.323486
2019-01-18T08:56:04.310Z,0.263062
2019-01-18T08:57:13.888Z,0.252991
2019-01-18T08:58:23.426Z,0.252991
2019-01-18T08:59:32.961Z,0.192566
2019-01-18T09:00:42.507Z,0.212708
2019-01-18T09:01:52.014Z,0.212708
2019-01-18T09:03:01.534Z,0.222778
2019-01-18T09:04:11.082Z,0.283203
2019-01-18T09:05:20.608Z,0.343628
2019-01-18T09:06:30.124Z,0.323486
2019-01-18T09:07:39.713Z,0.343628
2019-01-18T09:08:49.512Z,0.283203
2019-01-18T09:09:59.248Z,0.283203
2019-01-18T09:11:08.806Z,0.37384
2019-01-18T09:12:18.493Z,0.444336
2019-01-18T09:13:30.428Z,0.474548
2019-01-18T09:14:41.910Z,0.464478
2019-01-18T09:15:51.490Z,0.504761
2019-01-18T09:17:01.030Z,0.504761
2019-01-18T09:18:10.606Z,0.524902
2019-01-18T09:19:20.237Z,0.555115
2019-01-18T09:20:29.844Z,0.575256
2019-01-18T09:21:40.360Z,0.575256
2019-01-18T09:22:49.898Z,0.585327
2019-01-18T09:23:59.454Z,0.555115
2019-01-18T09:25:08.981Z,0.444336
2019-01-18T09:26:18.512Z,0.444336
2019-01-18T09:27:28.050Z,0.474548
2019-01-18T09:28:37.635Z,0.504761
2019-01-18T09:29:47.227Z,0.49469
2019-01-18T09:30:56.775Z,0.504761
2019-01-18T09:32:06.292Z,0.504761
2019-01-18T09:33:16.029Z,0.464478
2019-01-18T09:34:27.606Z,0.464478
2019-01-18T09:35:37.163Z,0.524902
2019-01-18T09:36:46.705Z,0.61554
2019-01-18T09:37:56.248Z,0.726318
2019-01-18T09:39:08.058Z,0.655823
2019-01-18T09:40:18.033Z,0.675964
2019-01-18T09:41:28.143Z,0.655823
2019-01-18T09:42:38.064Z,0.585327
2019-01-18T09:43:47.642Z,0.585327
2019-01-18T09:44:57.171Z,0.645752
2019-01-18T09:46:06.697Z,0.545044
2019-01-18T09:47:16.318Z,0.585327
2019-01-18T09:48:25.890Z,0.49469
2019-01-18T09:49:35.470Z,0.545044
2019-01-18T09:50:44.970Z,0.595398
2019-01-18T09:51:54.577Z,0.61554
2019-01-18T09:53:04.111Z,0.585327
2019-01-18T09:54:13.669Z,0.555115
2019-01-18T09:55:23.211Z,0.555115
2019-01-18T09:56:32.716Z,0.474548
2019-01-18T09:57:42.251Z,0.49469
2019-01-18T09:58:51.818Z,0.414124
2019-01-18T10:00:01.367Z,0.444336
2019-01-18T10:01:10.931Z,0.474548
2019-01-18T10:02:20.509Z,0.444336
2019-01-18T10:03:30.082Z,0.444336
2019-01-18T10:04:39.633Z,0.49469
2019-01-18T10:05:49.164Z,0.49469
2019-01-18T10:06:58.684Z,0.555115
2019-01-18T10:08:08.221Z,0.655823
2019-01-18T10:09:17.783Z,0.61554
2019-01-18T10:10:27.343Z,0.61554
2019-01-18T10:11:36.891Z,0.62561
2019-01-18T10:12:46.477Z,0.655823
2019-01-18T10:13:56.023Z,0.61554
2019-01-18T10:15:04.560Z,0.675964
2019-01-18T10:16:14.105Z,0.726318
2019-01-18T10:17:23.613Z,0.776672
2019-01-18T10:18:33.161Z,0.736389
2019-01-18T10:19:42.736Z,0.726318
2019-01-18T10:20:52.269Z,0.645752
2019-01-18T10:22:01.835Z,0.49469
2019-01-18T10:23:11.321Z,0.404053
2019-01-18T10:24:21.093Z,0.393982
2019-01-18T10:25:30.398Z,0.393982
2019-01-18T10:26:39.947Z,0.464478
2019-01-18T10:27:49.522Z,0.545044
2019-01-18T10:28:59.063Z,0.524902
2019-01-18T10:30:08.652Z,0.474548
2019-01-18T10:31:18.184Z,0.504761
2019-01-18T10:32:27.708Z,0.474548
2019-01-18T10:33:37.264Z,0.414124
2019-01-18T10:34:46.824Z,0.444336
2019-01-18T10:35:56.362Z,0.524902
2019-01-18T10:37:05.890Z,0.585327
2019-01-18T10:38:15.457Z,0.545044
2019-01-18T10:39:24.994Z,0.504761
2019-01-18T10:40:34.505Z,0.524902
2019-01-18T10:41:44.044Z,0.545044
2019-01-18T10:42:53.570Z,0.595398
2019-01-18T10:44:05.993Z,0.686035
2019-01-18T10:45:13.638Z,0.776672
2019-01-18T10:46:23.185Z,0.806885
2019-01-18T10:47:32.709Z,0.806885
2019-01-18T10:48:42.248Z,0.917664
2019-01-18T10:49:51.841Z,1.048584
2019-01-18T10:51:01.390Z,1.098938
2019-01-18T10:52:10.945Z,1.280212
2019-01-18T10:53:20.482Z,1.62262
2019-01-18T10:54:30.052Z,1.803894
2019-01-18T10:55:39.551Z,1.733398
2019-01-18T10:56:49.100Z,1.783752
2019-01-18T10:57:58.637Z,1.88446
2019-01-18T10:59:08.164Z,2.055664
2019-01-18T11:00:17.712Z,2.277222
2019-01-18T11:01:27.290Z,2.609558
2019-01-18T11:02:36.791Z,2.901611
2019-01-18T11:03:46.322Z,3.082886
2019-01-18T11:04:56.901Z,3.072815
2019-01-18T11:06:06.425Z,3.143311
2019-01-18T11:07:15.935Z,2.921753
2019-01-18T11:08:25.485Z,2.720337
2019-01-18T11:09:35.050Z,2.800903
2019-01-18T11:10:44.560Z,3.002319
2019-01-18T11:11:54.072Z,3.143311
2019-01-18T11:13:03.577Z,3.052673
2019-01-18T11:14:13.110Z,2.921753
2019-01-18T11:15:22.630Z,2.710266
2019-01-18T11:16:32.185Z,2.931824
2019-01-18T11:17:41.749Z,2.800903
2019-01-18T11:18:51.260Z,2.669983
2019-01-18T11:20:00.940Z,2.599487
2019-01-18T11:21:10.490Z,2.690125
2019-01-18T11:22:20.024Z,2.770691
2019-01-18T11:23:29.550Z,2.861328
2019-01-18T11:24:39.113Z,2.861328
2019-01-18T11:25:48.660Z,2.559204
2019-01-18T11:26:58.364Z,2.438354
2019-01-18T11:28:07.943Z,2.468567
2019-01-18T11:29:17.479Z,2.438354
2019-01-18T11:30:27.060Z,2.25708
2019-01-18T11:31:36.571Z,2.176514
2019-01-18T11:32:46.099Z,2.106018
2019-01-18T11:33:55.623Z,2.035522
2019-01-18T11:35:05.153Z,1.924744
2019-01-18T11:36:14.716Z,1.713257
2019-01-18T11:37:24.263Z,1.592407
2019-01-18T11:38:33.791Z,1.562195
2019-01-18T11:39:43.369Z,1.441345
2019-01-18T11:40:52.919Z,1.531982
2019-01-18T11:42:05.269Z,1.63269
2019-01-18T11:43:11.989Z,1.773682
2019-01-18T11:44:21.542Z,1.813965
2019-01-18T11:45:31.097Z,1.803894
2019-01-18T11:46:40.641Z,1.803894
2019-01-18T11:47:50.169Z,1.854248
2019-01-18T11:48:59.819Z,1.803894
2019-01-18T11:50:09.316Z,1.773682
2019-01-18T11:51:17.983Z,1.88446
2019-01-18T11:52:27.481Z,1.995239
2019-01-18T11:53:37.005Z,2.065735
2019-01-18T11:54:46.523Z,2.035522
2019-01-18T11:55:56.064Z,1.995239
2019-01-18T11:57:05.629Z,1.965027
2019-01-18T11:58:15.206Z,1.944885
2019-01-18T11:59:24.791Z,1.944885
2019-01-18T12:00:37.826Z,1.894531
2019-01-18T12:01:43.873Z,1.914673
2019-01-18T12:02:52.405Z,1.924744
2019-01-18T12:04:01.924Z,1.854248
2019-01-18T12:05:11.494Z,1.954956
2019-01-18T12:06:21.033Z,1.985168
2019-01-18T12:07:29.589Z,2.166443
2019-01-18T12:08:41.865Z,2.37793
2019-01-18T12:09:48.821Z,2.498779
2019-01-18T12:10:58.345Z,2.569275
2019-01-18T12:12:07.859Z,2.539062
2019-01-18T12:13:17.405Z,2.488708
2019-01-18T12:14:27.091Z,2.438354
2019-01-18T12:15:36.671Z,2.428284
2019-01-18T12:16:46.229Z,2.438354
2019-01-18T12:17:55.758Z,2.357788
2019-01-18T12:19:05.267Z,2.428284
2019-01-18T12:20:14.860Z,2.388
2019-01-18T12:21:24.429Z,2.418213
2019-01-18T12:22:34.939Z,2.327576
2019-01-18T12:23:44.472Z,2.317505
2019-01-18T12:24:54.019Z,2.277222
2019-01-18T12:26:03.542Z,2.196655
2019-01-18T12:27:13.074Z,2.176514
2019-01-18T12:28:22.641Z,2.176514
2019-01-18T12:29:32.084Z,2.075806
2019-01-18T12:30:41.655Z,2.055664
2019-01-18T12:31:51.179Z,2.055664
2019-01-18T12:33:00.756Z,2.055664
2019-01-18T12:34:10.278Z,2.065735
2019-01-18T12:35:19.842Z,2.075806
2019-01-18T12:36:29.376Z,2.065735
2019-01-18T12:37:39.904Z,2.015381
2019-01-18T12:38:49.427Z,1.914673
2019-01-18T12:39:58.989Z,1.763611
2019-01-18T12:41:08.498Z,1.783752
2019-01-18T12:42:18.049Z,1.783752
2019-01-18T12:43:27.555Z,1.813965
2019-01-18T12:44:37.084Z,1.773682
2019-01-18T12:45:46.607Z,1.803894
2019-01-18T12:46:56.166Z,1.763611
2019-01-18T12:48:05.719Z,1.703186
2019-01-18T12:49:15.249Z,1.713257
2019-01-18T12:50:24.838Z,1.62262
2019-01-18T12:51:34.384Z,1.602478
2019-01-18T12:52:43.914Z,1.582336
2019-01-18T12:53:53.445Z,1.592407
2019-01-18T12:55:03.018Z,1.592407
2019-01-18T12:56:12.537Z,1.582336
2019-01-18T12:57:22.083Z,1.602478
2019-01-18T12:58:31.620Z,1.602478
2019-01-18T12:59:41.150Z,1.562195
2019-01-18T13:00:50.686Z,1.562195
2019-01-18T13:02:00.209Z,1.592407
2019-01-18T13:03:09.750Z,1.63269
2019-01-18T13:04:19.254Z,1.683044
2019-01-18T13:05:28.845Z,1.743469
2019-01-18T13:06:38.405Z,1.813965
2019-01-18T13:07:48.932Z,1.944885
2019-01-18T13:08:58.441Z,2.12616
2019-01-18T13:10:11.797Z,2.25708
2019-01-18T13:11:17.492Z,2.428284
2019-01-18T13:12:27.062Z,2.559204
2019-01-18T13:13:36.636Z,2.680054
2019-01-18T13:14:46.182Z,2.821045
2019-01-18T13:15:56.822Z,2.931824
2019-01-18T13:17:06.361Z,3.052673
2019-01-18T13:18:15.966Z,3.113098
2019-01-18T13:19:25.586Z,3.797913
2019-01-18T13:20:36.177Z,4.402161
2019-01-18T13:21:45.758Z,4.553223
2019-01-18T13:22:55.368Z,4.321594
2019-01-18T13:24:04.925Z,3.757629
2019-01-18T13:25:14.462Z,3.475647
2019-01-18T13:26:24.032Z,3.405151
2019-01-18T13:27:33.598Z,3.314514
2019-01-18T13:28:43.141Z,3.213806
2019-01-18T13:29:52.666Z,3.072815
2019-01-18T13:31:02.217Z,2.931824